createdAt,value
2022-10-12T00:01:03.869Z,32.45
2022-10-12T00:02:54.533Z,23.42
2022-10-12T00:04:45.075Z,18.67
2022-10-12T00:06:36.094Z,31.60
2022-10-12T00:08:27.072Z,23.58
2022-10-12T00:10:18.269Z,23.63
2022-10-12T00:12:10.457Z,31.50
2022-10-12T00:14:01.072Z,23.65
2022-10-12T00:15:51.771Z,29.85
2022-10-12T00:17:42.480Z,31.67
2022-10-12T00:19:33.367Z,23.65
2022-10-12T00:21:26.474Z,25.42
2022-10-12T00:23:17.078Z,20.23
2022-10-12T00:25:08.537Z,21.85
2022-10-12T00:26:59.515Z,27.45
2022-10-12T00:28:56.233Z,24.25
2022-10-12T00:30:46.963Z,25.25
2022-10-12T00:32:37.792Z,21.48
2022-10-12T00:34:28.718Z,19.35
2022-10-12T00:36:22.686Z,26.75
2022-10-12T00:38:13.477Z,20.63
2022-10-12T00:40:05.759Z,19.65
2022-10-12T00:43:48.377Z,22.23
2022-10-12T00:45:40.664Z,24.75
2022-10-12T00:47:34.162Z,26.60
2022-10-12T00:49:26.130Z,19.25
2022-10-12T00:51:19.084Z,24.75
2022-10-12T00:53:14.112Z,25.42
2022-10-12T00:55:06.475Z,21.90
2022-10-12T00:56:59.246Z,20.88
2022-10-12T00:58:51.457Z,25.52
2022-10-12T01:00:44.350Z,26.20
2022-10-12T01:02:36.372Z,19.52
2022-10-12T01:04:28.084Z,19.67
2022-10-12T01:06:19.383Z,25.23
2022-10-12T01:08:10.015Z,20.88
2022-10-12T01:10:01.729Z,25.30
2022-10-12T01:11:52.427Z,21.30
2022-10-12T01:13:43.372Z,19.73
2022-10-12T01:15:40.742Z,20.27
2022-10-12T01:17:43.457Z,20.65
2022-10-12T01:20:18.121Z,21.33
2022-10-12T01:22:12.836Z,21.52
2022-10-12T01:24:34.369Z,23.42
2022-10-12T01:27:03.597Z,24.35
2022-10-12T01:29:11.348Z,19.05
2022-10-12T01:31:13.226Z,33.53
2022-10-12T01:33:25.934Z,21.25
2022-10-12T01:35:24.759Z,19.40
2022-10-12T01:37:26.391Z,18.15
2022-10-12T01:39:25.349Z,16.60
2022-10-12T01:41:21.871Z,32.10
2022-10-12T01:43:12.559Z,20.42
2022-10-12T01:45:05.658Z,26.35
2022-10-12T01:46:57.903Z,20.08
2022-10-12T01:48:51.968Z,22.40
2022-10-12T01:50:50.102Z,24.73
2022-10-12T01:52:49.181Z,18.02
2022-10-12T01:54:59.770Z,17.52
2022-10-12T01:56:59.569Z,16.95
2022-10-12T01:58:59.801Z,22.40
2022-10-12T02:01:03.181Z,18.50
2022-10-12T02:03:06.975Z,30.50
2022-10-12T02:05:06.083Z,24.42
2022-10-12T02:07:04.600Z,19.48
2022-10-12T02:09:01.495Z,20.17
2022-10-12T02:10:58.262Z,18.88
2022-10-12T02:12:51.608Z,20.42
2022-10-12T02:14:46.557Z,19.45
2022-10-12T02:16:42.529Z,25.63
2022-10-12T02:18:38.325Z,17.05
2022-10-12T02:20:29.267Z,17.63
2022-10-12T02:22:20.622Z,25.10
2022-10-12T02:24:12.873Z,20.43
2022-10-12T02:26:04.975Z,28.88
2022-10-12T02:28:02.925Z,18.63
2022-10-12T02:29:54.439Z,20.00
2022-10-12T02:31:52.617Z,24.58
2022-10-12T02:33:51.137Z,22.83
2022-10-12T02:35:51.492Z,21.88
2022-10-12T02:37:46.575Z,24.45
2022-10-12T02:39:44.232Z,26.10
2022-10-12T02:41:42.968Z,22.45
2022-10-12T02:43:38.563Z,19.27
2022-10-12T02:45:30.356Z,17.52
2022-10-12T02:47:23.781Z,25.70
2022-10-12T02:49:17.385Z,21.58
2022-10-12T02:51:10.897Z,20.83
2022-10-12T02:53:03.187Z,21.30
2022-10-12T02:56:45.043Z,23.95
2022-10-12T02:58:35.676Z,26.10
2022-10-12T03:00:26.711Z,24.08
2022-10-12T03:02:17.329Z,21.88
2022-10-12T03:04:08.208Z,24.73
2022-10-12T03:06:00.558Z,19.08
2022-10-12T03:07:51.459Z,22.80
2022-10-12T03:09:42.322Z,22.00
2022-10-12T03:11:33.122Z,19.55
2022-10-12T03:13:24.203Z,22.63
2022-10-12T03:15:15.312Z,22.42
2022-10-12T03:17:05.949Z,22.42
2022-10-12T03:18:56.612Z,21.90
2022-10-12T03:20:48.614Z,27.35
2022-10-12T03:22:40.725Z,22.17
2022-10-12T03:24:31.621Z,34.17
2022-10-12T03:26:23.141Z,22.55
2022-10-12T03:28:14.276Z,28.17
2022-10-12T03:30:06.355Z,23.48
2022-10-12T03:31:57.022Z,28.38
2022-10-12T03:33:47.832Z,26.23
2022-10-12T03:35:38.814Z,27.23
2022-10-12T03:37:29.328Z,24.92
2022-10-12T03:39:21.613Z,22.13
2022-10-12T03:41:12.538Z,22.60
2022-10-12T03:43:03.448Z,26.85
2022-10-12T03:44:54.145Z,22.52
2022-10-12T03:46:45.025Z,22.85
2022-10-12T03:48:35.862Z,19.70
2022-10-12T03:50:26.669Z,24.42
2022-10-12T03:52:17.331Z,24.67
2022-10-12T03:54:08.071Z,25.77
2022-10-12T03:56:00.986Z,35.33
2022-10-12T03:57:51.557Z,29.17
2022-10-12T03:59:42.329Z,20.25
2022-10-12T04:01:33.260Z,22.38
2022-10-12T04:03:24.328Z,19.58
2022-10-12T04:05:15.216Z,23.15
2022-10-12T04:07:06.013Z,20.50
2022-10-12T04:08:56.965Z,21.23
2022-10-12T04:10:47.759Z,20.02
2022-10-12T04:12:42.415Z,23.70
2022-10-12T04:14:33.134Z,21.10
2022-10-12T04:16:26.118Z,18.80
2022-10-12T04:18:19.531Z,25.27
2022-10-12T04:20:11.546Z,23.60
2022-10-12T04:22:02.386Z,22.65
2022-10-12T04:23:53.400Z,21.95
2022-10-12T04:25:48.050Z,21.25
2022-10-12T04:27:40.268Z,19.88
2022-10-12T04:29:31.367Z,23.65
2022-10-12T04:31:22.161Z,25.13
2022-10-12T04:33:12.949Z,18.10
2022-10-12T04:35:04.546Z,20.48
2022-10-12T04:36:55.263Z,21.52
2022-10-12T04:38:45.831Z,22.75
2022-10-12T04:40:36.718Z,22.35
2022-10-12T04:42:27.584Z,25.20
2022-10-12T04:44:19.747Z,20.27
2022-10-12T04:46:10.442Z,18.17
2022-10-12T04:48:01.198Z,22.55
2022-10-12T04:49:52.213Z,25.25
2022-10-12T04:51:42.898Z,27.52
2022-10-12T04:53:33.680Z,18.60
2022-10-12T04:55:24.462Z,24.25
2022-10-12T04:57:15.348Z,22.02
2022-10-12T04:59:05.978Z,26.08
2022-10-12T05:00:58.398Z,30.45
2022-10-12T05:02:48.957Z,22.42
2022-10-12T05:04:40.252Z,26.05
2022-10-12T05:06:30.988Z,29.05
2022-10-12T05:08:21.831Z,25.55
2022-10-12T05:10:12.592Z,34.33
2022-10-12T05:12:03.745Z,39.70
2022-10-12T05:13:54.475Z,33.08
2022-10-12T05:15:45.680Z,29.05
2022-10-12T05:17:37.988Z,23.35
2022-10-12T05:19:28.670Z,31.23
2022-10-12T05:21:19.411Z,26.13
2022-10-12T05:23:11.100Z,27.67
2022-10-12T05:25:02.228Z,33.25
2022-10-12T05:26:53.165Z,31.23
2022-10-12T05:28:44.092Z,26.05
2022-10-12T05:30:35.263Z,25.10
2022-10-12T05:32:26.310Z,24.13
2022-10-12T05:34:18.245Z,33.88
2022-10-12T05:36:09.444Z,23.17
2022-10-12T05:38:00.252Z,21.70
2022-10-12T05:39:50.898Z,27.50
2022-10-12T05:41:41.710Z,23.67
2022-10-12T05:43:32.790Z,25.60
2022-10-12T05:45:23.543Z,28.50
2022-10-12T05:47:14.474Z,19.90
2022-10-12T05:49:05.986Z,25.33
2022-10-12T05:50:57.957Z,27.15
2022-10-12T05:52:49.180Z,25.75
2022-10-12T05:54:40.024Z,19.85
2022-10-12T05:56:30.889Z,24.88
2022-10-12T05:58:21.844Z,22.55
2022-10-12T06:00:13.573Z,29.42
2022-10-12T06:02:04.624Z,24.55
2022-10-12T06:03:56.562Z,29.77
2022-10-12T06:05:47.274Z,31.30
2022-10-12T06:07:39.493Z,20.67
2022-10-12T06:09:29.914Z,21.80
2022-10-12T06:11:20.878Z,26.17
2022-10-12T06:13:14.228Z,24.63
2022-10-12T06:15:06.600Z,27.15
2022-10-12T06:16:57.592Z,27.20
2022-10-12T06:18:48.447Z,28.55
2022-10-12T06:20:39.243Z,29.75
2022-10-12T06:22:30.260Z,21.83
2022-10-12T06:24:22.647Z,31.02
2022-10-12T06:26:13.698Z,26.70
2022-10-12T06:28:05.020Z,21.95
2022-10-12T06:29:56.040Z,24.75
2022-10-12T06:31:51.419Z,24.65
2022-10-12T06:33:44.395Z,28.17
2022-10-12T06:37:48.426Z,31.58
2022-10-12T06:39:37.951Z,23.95
2022-10-12T06:43:19.516Z,37.10
2022-10-12T06:45:11.560Z,35.25
2022-10-12T06:47:02.572Z,36.88
2022-10-12T06:48:53.353Z,28.92
2022-10-12T06:50:44.469Z,34.33
2022-10-12T06:52:35.316Z,30.15
2022-10-12T06:54:26.350Z,32.75
2022-10-12T06:56:18.392Z,34.95
2022-10-12T06:58:09.205Z,29.90
2022-10-12T06:59:59.868Z,33.03
2022-10-12T07:01:51.043Z,27.63
2022-10-12T07:03:41.985Z,28.92
2022-10-12T07:05:36.352Z,29.33
2022-10-12T07:07:30.351Z,38.25
2022-10-12T07:09:21.074Z,35.20
2022-10-12T07:11:13.352Z,29.73
2022-10-12T07:13:05.361Z,29.88
2022-10-12T07:14:56.053Z,29.50
2022-10-12T07:16:50.498Z,28.38
2022-10-12T07:18:43.678Z,29.27
2022-10-12T07:20:34.522Z,29.48
2022-10-12T07:22:26.146Z,27.13
2022-10-12T07:24:17.162Z,32.65
2022-10-12T07:26:08.306Z,29.17
2022-10-12T07:27:58.981Z,31.90
2022-10-12T07:29:51.363Z,31.15
2022-10-12T07:33:33.261Z,40.92
2022-10-12T07:35:24.118Z,39.95
2022-10-12T07:37:14.982Z,34.83
2022-10-12T07:39:05.871Z,39.92
2022-10-12T07:40:59.465Z,38.65
2022-10-12T07:43:14.860Z,29.52
2022-10-12T07:45:02.408Z,31.83
2022-10-12T07:46:52.950Z,36.53
2022-10-12T07:48:49.100Z,31.65
2022-10-12T07:50:41.305Z,37.72
2022-10-12T07:52:33.468Z,31.02
2022-10-12T07:54:29.192Z,35.72
2022-10-12T07:56:20.681Z,35.90
2022-10-12T07:58:11.312Z,40.42
2022-10-12T08:00:05.163Z,38.05
2022-10-12T08:01:56.092Z,34.45
2022-10-12T08:03:46.949Z,29.20
2022-10-12T08:05:37.660Z,36.97
2022-10-12T08:07:28.467Z,37.65
2022-10-12T08:09:19.320Z,34.35
2022-10-12T08:11:11.254Z,36.35
2022-10-12T08:13:02.354Z,42.20
2022-10-12T08:16:56.070Z,35.03
2022-10-12T08:18:51.385Z,33.63
2022-10-12T08:20:42.447Z,31.23
2022-10-12T08:24:49.259Z,31.40
2022-10-12T08:26:46.549Z,38.47
2022-10-12T08:28:45.144Z,32.03
2022-10-12T08:30:43.313Z,28.27
2022-10-12T08:32:40.381Z,35.42
2022-10-12T08:34:36.025Z,37.33
2022-10-12T08:36:35.436Z,34.22
2022-10-12T08:38:41.470Z,33.13
2022-10-12T08:40:46.478Z,34.83
2022-10-12T08:42:57.736Z,34.22
2022-10-12T08:45:31.435Z,31.40
2022-10-12T08:47:34.708Z,37.83
2022-10-12T08:49:39.565Z,33.08
2022-10-12T08:51:44.102Z,36.95
2022-10-12T08:53:46.924Z,29.38
2022-10-12T08:55:47.454Z,35.60
2022-10-12T08:57:40.153Z,40.30
2022-10-12T08:59:38.751Z,34.22
2022-10-12T09:01:52.928Z,35.38
2022-10-12T09:04:04.908Z,28.70
2022-10-12T09:06:14.796Z,33.97
2022-10-12T09:08:25.754Z,35.95
2022-10-12T09:10:38.258Z,30.42
2022-10-12T09:12:51.132Z,33.80
2022-10-12T09:14:53.462Z,32.28
2022-10-12T09:16:52.734Z,36.03
2022-10-12T09:18:49.805Z,35.78
2022-10-12T09:20:48.541Z,32.85
2022-10-12T09:22:49.056Z,29.92
2022-10-12T09:24:44.227Z,37.65
2022-10-12T09:26:40.956Z,25.35
2022-10-12T09:28:38.974Z,35.40
2022-10-12T09:30:30.208Z,28.65
2022-10-12T09:32:49.024Z,27.83
2022-10-12T09:34:40.452Z,26.42
2022-10-12T09:36:36.275Z,24.58
2022-10-12T09:38:28.227Z,39.58
2022-10-12T09:40:23.395Z,26.50
2022-10-12T09:42:14.141Z,24.00
2022-10-12T09:44:06.932Z,34.55
2022-10-12T09:46:01.477Z,26.73
2022-10-12T09:48:17.108Z,30.08
2022-10-12T09:50:08.620Z,28.45
2022-10-12T09:52:00.248Z,28.27
2022-10-12T09:53:57.633Z,38.95
2022-10-12T09:56:05.677Z,27.67
2022-10-12T09:57:59.960Z,36.50
2022-10-12T09:59:52.187Z,34.58
2022-10-12T10:01:56.329Z,32.30
2022-10-12T10:03:49.430Z,33.28
2022-10-12T10:05:40.030Z,32.95
2022-10-12T10:07:33.606Z,34.42
2022-10-12T10:09:34.535Z,23.70
2022-10-12T10:11:29.088Z,28.13
2022-10-12T10:13:21.009Z,31.08
2022-10-12T10:17:17.216Z,34.17
2022-10-12T10:19:17.892Z,36.55
2022-10-12T10:21:11.376Z,31.33
2022-10-12T10:23:05.438Z,28.25
2022-10-12T10:25:00.888Z,32.65
2022-10-12T10:26:55.239Z,29.58
2022-10-12T10:28:48.091Z,27.20
2022-10-12T10:30:41.252Z,27.30
2022-10-12T10:32:32.490Z,33.53
2022-10-12T10:34:24.448Z,30.55
2022-10-12T10:36:21.244Z,35.70
2022-10-12T10:38:14.560Z,26.20
2022-10-12T10:40:17.165Z,29.20
2022-10-12T10:42:12.664Z,27.75
2022-10-12T10:44:04.893Z,30.50
2022-10-12T10:47:48.193Z,29.52
2022-10-12T10:49:45.657Z,26.52
2022-10-12T10:51:44.619Z,31.80
2022-10-12T10:53:45.427Z,29.20
2022-10-12T10:55:49.507Z,28.77
2022-10-12T10:57:46.041Z,31.27
2022-10-12T10:59:47.507Z,39.78
2022-10-12T11:01:50.893Z,26.40
2022-10-12T11:03:52.381Z,32.38
2022-10-12T11:05:49.164Z,28.30
2022-10-12T11:07:48.052Z,35.15
2022-10-12T11:09:42.926Z,34.85
2022-10-12T11:11:38.292Z,34.10
2022-10-12T11:13:34.448Z,31.50
2022-10-12T11:15:32.816Z,31.35
2022-10-12T11:17:28.174Z,31.10
2022-10-12T11:19:30.224Z,30.77
2022-10-12T11:21:26.852Z,33.78
2022-10-12T11:23:32.170Z,32.70
2022-10-12T11:25:29.512Z,29.15
2022-10-12T11:27:28.367Z,37.20
2022-10-12T11:29:19.588Z,31.77
2022-10-12T11:31:20.983Z,29.65
2022-10-12T11:33:18.126Z,44.10
2022-10-12T11:35:17.019Z,32.63
2022-10-12T11:37:19.588Z,40.60
2022-10-12T11:39:22.725Z,32.60
2022-10-12T11:41:35.740Z,40.97
2022-10-12T11:43:36.235Z,33.30
2022-10-12T11:45:33.234Z,30.90
2022-10-12T11:47:35.807Z,30.15
2022-10-12T11:49:31.379Z,29.67
2022-10-12T11:51:22.371Z,35.83
2022-10-12T11:53:25.406Z,31.90
2022-10-12T11:55:35.528Z,33.90
2022-10-12T11:57:30.023Z,36.50
2022-10-12T11:59:32.939Z,35.80
2022-10-12T12:01:49.377Z,32.15
2022-10-12T12:04:39.828Z,27.95
2022-10-12T12:07:06.302Z,28.50
2022-10-12T12:08:58.499Z,29.10
2022-10-12T12:11:06.253Z,28.92
2022-10-12T12:13:23.285Z,32.03
2022-10-12T12:15:22.718Z,24.80
2022-10-12T12:17:28.141Z,26.23
2022-10-12T12:19:42.074Z,31.55
2022-10-12T12:22:19.241Z,23.52
2022-10-12T12:24:17.170Z,24.58
2022-10-12T12:26:17.521Z,29.10
2022-10-12T12:28:21.720Z,28.17
2022-10-12T12:30:37.225Z,23.25
2022-10-12T12:32:43.102Z,36.80
2022-10-12T12:34:34.697Z,26.35
2022-10-12T12:36:32.083Z,31.25
2022-10-12T12:38:28.809Z,31.58
2022-10-12T12:40:23.504Z,31.90
2022-10-12T12:42:24.375Z,32.65
2022-10-12T12:44:37.511Z,27.33
2022-10-12T12:49:44.485Z,28.73
2022-10-12T12:51:42.835Z,34.22
2022-10-12T12:53:37.657Z,30.58
2022-10-12T12:55:47.826Z,35.20
2022-10-12T12:57:58.596Z,33.92
2022-10-12T13:00:13.118Z,18.95
2022-10-12T13:02:41.982Z,33.83
2022-10-12T13:04:58.255Z,30.10
2022-10-12T13:07:26.976Z,29.83
2022-10-12T13:09:39.354Z,33.95
2022-10-12T13:11:48.205Z,31.17
2022-10-12T13:14:06.877Z,31.27
2022-10-12T13:16:36.657Z,31.00
2022-10-12T13:18:51.731Z,28.77
2022-10-12T13:20:48.112Z,29.67
2022-10-12T13:22:40.892Z,26.95
2022-10-12T13:24:40.428Z,28.05
2022-10-12T13:26:33.361Z,31.98
2022-10-12T13:28:29.245Z,27.80
2022-10-12T13:30:34.305Z,29.10
2022-10-12T13:32:40.156Z,26.77
2022-10-12T13:34:42.346Z,29.88
2022-10-12T13:36:46.754Z,25.92
2022-10-12T13:38:43.131Z,27.90
2022-10-12T13:40:40.275Z,30.48
2022-10-12T13:42:36.142Z,25.73
2022-10-12T13:44:30.232Z,26.35
2022-10-12T13:46:46.328Z,36.28
2022-10-12T13:48:58.828Z,35.75
2022-10-12T13:50:59.740Z,28.65
2022-10-12T13:52:55.567Z,29.10
2022-10-12T13:54:51.406Z,26.80
2022-10-12T13:56:45.372Z,28.88
2022-10-12T13:58:37.500Z,27.10
2022-10-12T14:00:29.096Z,33.25
2022-10-12T14:02:25.526Z,25.15
2022-10-12T14:04:16.745Z,22.95
2022-10-12T14:06:26.742Z,32.78
2022-10-12T14:08:26.310Z,28.40
2022-10-12T14:10:23.054Z,26.08
2022-10-12T14:12:15.880Z,24.80
2022-10-12T14:14:17.342Z,24.00
2022-10-12T14:16:12.653Z,27.83
2022-10-12T14:18:04.484Z,25.10
2022-10-12T14:20:14.344Z,29.13
2022-10-12T14:22:05.584Z,24.38
2022-10-12T14:24:00.607Z,34.15
2022-10-12T14:25:53.256Z,29.15
2022-10-12T14:27:44.551Z,22.83
2022-10-12T14:29:42.597Z,27.05
2022-10-12T14:31:50.875Z,27.77
2022-10-12T14:33:41.366Z,37.40
2022-10-12T14:35:32.586Z,24.63
2022-10-12T14:37:29.967Z,31.58
2022-10-12T14:39:21.962Z,27.02
2022-10-12T14:41:33.640Z,28.40
2022-10-12T14:43:28.171Z,28.98
2022-10-12T14:45:25.104Z,27.35
2022-10-12T14:47:21.576Z,31.73
2022-10-12T14:49:18.580Z,29.13
2022-10-12T14:51:09.888Z,31.70
2022-10-12T14:53:04.724Z,32.80
2022-10-12T14:55:04.850Z,26.63
2022-10-12T14:57:10.840Z,27.15
2022-10-12T14:59:02.360Z,25.25
2022-10-12T15:00:54.196Z,26.15
2022-10-12T15:02:46.351Z,26.85
2022-10-12T15:04:36.871Z,35.53
2022-10-12T15:06:27.659Z,26.17
2022-10-12T15:08:18.571Z,27.02
2022-10-12T15:10:10.897Z,26.60
2022-10-12T15:12:01.819Z,27.42
2022-10-12T15:13:52.832Z,27.17
2022-10-12T15:15:46.688Z,32.05
2022-10-12T15:17:37.167Z,34.35
2022-10-12T15:19:27.864Z,27.63
2022-10-12T15:21:19.692Z,28.75
2022-10-12T15:23:11.004Z,19.48
2022-10-12T15:25:01.960Z,32.92
2022-10-12T15:26:54.369Z,30.52
2022-10-12T15:28:45.295Z,29.42
2022-10-12T15:30:47.319Z,32.08
2022-10-12T15:32:47.505Z,26.67
2022-10-12T15:34:39.175Z,30.23
2022-10-12T15:36:30.205Z,24.45
2022-10-12T15:38:21.270Z,28.08
2022-10-12T15:40:13.056Z,26.67
2022-10-12T15:42:05.154Z,28.30
2022-10-12T15:43:55.631Z,29.02
2022-10-12T15:45:46.290Z,33.85
2022-10-12T15:47:37.227Z,32.17
2022-10-12T15:49:27.893Z,26.95
2022-10-12T15:51:21.651Z,35.33
2022-10-12T15:53:16.126Z,38.88
2022-10-12T15:55:17.601Z,31.10
2022-10-12T15:57:10.031Z,31.58
2022-10-12T15:59:00.781Z,34.53
2022-10-12T16:00:51.642Z,22.38
2022-10-12T16:02:42.824Z,28.85
2022-10-12T16:04:33.695Z,31.67
2022-10-12T16:06:24.583Z,31.90
2022-10-12T16:08:15.478Z,35.88
2022-10-12T16:10:07.368Z,27.52
2022-10-12T16:11:57.968Z,30.17
2022-10-12T16:13:56.262Z,41.38
2022-10-12T16:15:47.657Z,33.17
2022-10-12T16:17:38.544Z,27.85
2022-10-12T16:19:29.192Z,40.60
2022-10-12T16:21:19.980Z,38.55
2022-10-12T16:23:16.853Z,34.25
2022-10-12T16:25:11.089Z,32.28
2022-10-12T16:27:01.885Z,35.78
2022-10-12T16:28:53.880Z,34.30
2022-10-12T16:30:44.810Z,39.80
2022-10-12T16:32:35.644Z,38.63
2022-10-12T16:34:26.332Z,37.33
2022-10-12T16:36:17.480Z,42.30
2022-10-12T16:38:08.488Z,43.03
2022-10-12T16:39:59.058Z,38.97
2022-10-12T16:41:49.867Z,36.90
2022-10-12T16:43:41.008Z,39.92
2022-10-12T16:45:33.147Z,31.50
2022-10-12T16:47:23.723Z,41.78
2022-10-12T16:49:14.735Z,39.83
2022-10-12T16:51:09.906Z,38.03
2022-10-12T16:53:00.791Z,40.53
2022-10-12T16:54:52.141Z,41.38
2022-10-12T16:56:42.984Z,44.80
2022-10-12T16:58:33.787Z,35.67
2022-10-12T17:00:24.699Z,36.35
2022-10-12T17:02:19.118Z,40.90
2022-10-12T17:04:11.985Z,36.67
2022-10-12T17:06:03.364Z,33.55
2022-10-12T17:07:54.251Z,37.10
2022-10-12T17:09:44.985Z,33.72
2022-10-12T17:11:37.100Z,43.60
2022-10-12T17:13:28.154Z,42.30
2022-10-12T17:15:20.903Z,40.88
2022-10-12T17:17:11.680Z,37.97
2022-10-12T17:19:03.948Z,39.03
2022-10-12T17:20:58.632Z,39.22
2022-10-12T17:22:49.296Z,40.38
2022-10-12T17:24:41.945Z,47.22
2022-10-12T17:26:34.470Z,37.22
2022-10-12T17:28:27.950Z,40.22
2022-10-12T17:30:18.910Z,39.65
2022-10-12T17:32:11.032Z,36.88
2022-10-12T17:34:03.526Z,40.42
2022-10-12T17:35:54.215Z,29.02
2022-10-12T17:37:44.901Z,33.00
2022-10-12T17:39:39.296Z,44.88
2022-10-12T17:41:29.967Z,41.10
2022-10-12T17:43:20.790Z,39.22
2022-10-12T17:45:11.777Z,36.47
2022-10-12T17:47:02.437Z,44.15
2022-10-12T17:48:53.251Z,30.80
2022-10-12T17:50:45.417Z,33.47
2022-10-12T17:52:38.296Z,34.67
2022-10-12T17:54:28.944Z,43.90
2022-10-12T17:56:19.651Z,46.67
2022-10-12T17:58:10.475Z,37.33
2022-10-12T18:00:01.315Z,40.55
2022-10-12T18:01:52.567Z,37.42
2022-10-12T18:03:43.720Z,39.67
2022-10-12T18:05:34.781Z,40.85
2022-10-12T18:07:26.625Z,39.15
2022-10-12T18:09:17.658Z,37.15
2022-10-12T18:11:08.979Z,35.25
2022-10-12T18:12:59.724Z,37.00
2022-10-12T18:14:50.889Z,31.38
2022-10-12T18:16:41.927Z,43.17
2022-10-12T18:18:32.652Z,37.85
2022-10-12T18:20:23.645Z,38.70
2022-10-12T18:22:14.383Z,36.17
2022-10-12T18:24:14.887Z,40.92
2022-10-12T18:26:09.161Z,43.53
2022-10-12T18:27:59.750Z,42.60
2022-10-12T18:29:50.395Z,38.15
2022-10-12T18:31:41.759Z,34.33
2022-10-12T18:33:34.064Z,32.97
2022-10-12T18:35:24.902Z,41.70
2022-10-12T18:37:15.792Z,36.80
2022-10-12T18:39:07.879Z,45.05
2022-10-12T18:41:02.984Z,41.45
2022-10-12T18:42:53.500Z,37.55
2022-10-12T18:44:44.576Z,34.58
2022-10-12T18:46:35.806Z,40.45
2022-10-12T18:48:26.500Z,41.15
2022-10-12T18:50:17.406Z,41.15
2022-10-12T18:52:08.304Z,34.38
2022-10-12T18:54:00.548Z,39.20
2022-10-12T18:55:52.660Z,37.80
2022-10-12T18:57:43.180Z,41.03
2022-10-12T18:59:34.169Z,43.40
2022-10-12T19:01:27.471Z,36.55
2022-10-12T19:03:18.061Z,42.22
2022-10-12T19:05:09.391Z,40.42
2022-10-12T19:07:00.129Z,35.38
2022-10-12T19:08:51.139Z,42.15
2022-10-12T19:10:42.177Z,44.55
2022-10-12T19:12:34.272Z,37.00
2022-10-12T19:14:24.725Z,33.22
2022-10-12T19:16:15.940Z,31.98
2022-10-12T19:18:07.297Z,38.10
2022-10-12T19:19:58.333Z,39.80
2022-10-12T19:21:50.068Z,31.98
2022-10-12T19:23:41.510Z,30.73
2022-10-12T19:25:32.193Z,37.45
2022-10-12T19:27:22.876Z,35.20
2022-10-12T19:29:15.426Z,37.53
2022-10-12T19:31:10.476Z,44.08
2022-10-12T19:33:01.113Z,41.08
2022-10-12T19:34:52.048Z,40.92
2022-10-12T19:36:42.598Z,31.77
2022-10-12T19:38:34.042Z,32.42
2022-10-12T19:40:24.379Z,37.10
2022-10-12T19:42:15.329Z,41.55
2022-10-12T19:44:06.789Z,39.40
2022-10-12T19:46:03.685Z,42.47
2022-10-12T19:47:54.218Z,43.40
2022-10-12T19:49:45.464Z,36.03
2022-10-12T19:51:36.481Z,42.83
2022-10-12T19:53:27.341Z,37.88
2022-10-12T19:55:18.289Z,39.58
2022-10-12T19:57:09.119Z,41.75
2022-10-12T19:59:00.215Z,36.85
2022-10-12T20:00:50.783Z,36.15
2022-10-12T20:02:43.520Z,36.53
2022-10-12T20:04:34.001Z,42.90
2022-10-12T20:06:28.672Z,36.45
2022-10-12T20:08:19.524Z,38.90
2022-10-12T20:10:10.468Z,41.05
2022-10-12T20:12:04.262Z,36.58
2022-10-12T20:13:56.355Z,40.75
2022-10-12T20:15:46.808Z,42.90
2022-10-12T20:17:57.156Z,40.63
2022-10-12T20:19:47.402Z,31.70
2022-10-12T20:21:39.368Z,31.85
2022-10-12T20:25:20.281Z,36.65
2022-10-12T20:27:10.589Z,38.85
2022-10-12T20:29:01.060Z,36.78
2022-10-12T20:30:52.757Z,34.58
2022-10-12T20:32:43.640Z,34.25
2022-10-12T20:34:35.796Z,35.92
2022-10-12T20:36:28.306Z,31.75
2022-10-12T20:40:11.260Z,35.40
2022-10-12T20:42:02.315Z,35.17
2022-10-12T20:43:54.884Z,34.55
2022-10-12T20:45:45.161Z,38.55
2022-10-12T20:47:35.752Z,42.08
2022-10-12T20:49:26.587Z,37.03
2022-10-12T20:51:20.764Z,30.33
2022-10-12T20:53:11.170Z,39.53
2022-10-12T20:55:01.585Z,40.28
2022-10-12T20:56:51.892Z,43.35
2022-10-12T20:58:42.135Z,33.35
2022-10-12T21:00:32.561Z,37.03
2022-10-12T21:02:23.478Z,33.83
2022-10-12T21:04:14.042Z,35.65
2022-10-12T21:06:05.698Z,38.08
2022-10-12T21:07:57.359Z,31.53
2022-10-12T21:09:48.021Z,37.75
2022-10-12T21:11:38.669Z,29.55
2022-10-12T21:13:30.147Z,35.25
2022-10-12T21:15:20.670Z,35.13
2022-10-12T21:17:11.188Z,41.38
2022-10-12T21:19:01.495Z,35.00
2022-10-12T21:20:56.766Z,39.42
2022-10-12T21:22:47.441Z,36.90
2022-10-12T21:24:39.479Z,34.13
2022-10-12T21:26:31.258Z,31.85
2022-10-12T21:28:22.305Z,34.08
2022-10-12T21:30:12.960Z,33.25
2022-10-12T21:32:03.288Z,31.85
2022-10-12T21:33:53.846Z,33.72
2022-10-12T21:35:44.483Z,26.77
2022-10-12T21:37:35.169Z,33.33
2022-10-12T21:39:25.478Z,37.88
2022-10-12T21:41:18.426Z,34.13
2022-10-12T21:43:09.123Z,28.83
2022-10-12T21:44:59.542Z,27.98
2022-10-12T21:46:49.733Z,30.13
2022-10-12T21:48:40.340Z,29.67
2022-10-12T21:50:30.588Z,26.65
2022-10-12T21:52:21.106Z,32.15
2022-10-12T21:54:11.792Z,27.13
2022-10-12T21:56:05.943Z,28.40
2022-10-12T21:57:57.631Z,26.80
2022-10-12T21:59:48.284Z,35.72
2022-10-12T22:01:39.961Z,28.63
2022-10-12T22:03:30.310Z,25.40
2022-10-12T22:05:20.854Z,22.83
2022-10-12T22:07:11.075Z,31.48
2022-10-12T22:09:04.461Z,24.33
2022-10-12T22:10:55.572Z,28.05
2022-10-12T22:12:45.945Z,26.23
2022-10-12T22:14:37.654Z,31.60
2022-10-12T22:16:28.619Z,30.20
2022-10-12T22:18:18.954Z,28.77
2022-10-12T22:20:10.496Z,28.95
2022-10-12T22:22:01.312Z,23.63
2022-10-12T22:23:51.958Z,33.75
2022-10-12T22:25:42.287Z,26.42
2022-10-12T22:27:32.736Z,34.60
2022-10-12T22:29:24.221Z,27.35
2022-10-12T22:31:17.647Z,32.72
2022-10-12T22:33:08.007Z,32.05
2022-10-12T22:34:58.281Z,30.10
2022-10-12T22:36:48.554Z,27.33
2022-10-12T22:38:38.956Z,30.10
2022-10-12T22:40:29.174Z,38.83
2022-10-12T22:42:20.113Z,30.83
2022-10-12T22:44:10.663Z,27.85
2022-10-12T22:46:01.751Z,23.15
2022-10-12T22:47:53.801Z,26.42
2022-10-12T22:49:44.339Z,27.35
2022-10-12T22:51:37.072Z,30.00
2022-10-12T22:53:28.548Z,38.38
2022-10-12T22:55:19.091Z,24.13
2022-10-12T22:57:09.487Z,31.75
2022-10-12T22:59:01.744Z,28.10
2022-10-12T23:00:52.027Z,30.15
2022-10-12T23:02:42.372Z,27.70
2022-10-12T23:04:34.286Z,27.60
2022-10-12T23:06:25.344Z,29.42
2022-10-12T23:08:16.060Z,33.63
2022-10-12T23:10:07.444Z,27.50
2022-10-12T23:11:57.712Z,27.95
2022-10-12T23:13:48.076Z,27.98
2022-10-12T23:15:38.255Z,31.80
2022-10-12T23:17:28.888Z,29.63
2022-10-12T23:19:20.281Z,29.55
2022-10-12T23:21:13.972Z,34.25
2022-10-12T23:23:04.414Z,30.55
2022-10-12T23:24:55.016Z,29.38
2022-10-12T23:26:45.220Z,33.05
2022-10-12T23:28:35.921Z,28.75
2022-10-12T23:30:27.272Z,30.75
2022-10-12T23:32:18.003Z,39.23
2022-10-12T23:34:10.641Z,28.45
2022-10-12T23:37:53.313Z,34.20
2022-10-12T23:39:43.935Z,33.45
2022-10-12T23:41:34.345Z,38.10
2022-10-12T23:43:24.928Z,42.03
2022-10-12T23:45:15.247Z,39.05
2022-10-12T23:47:05.668Z,37.28
2022-10-12T23:51:05.984Z,45.08
2022-10-12T23:52:57.967Z,36.50
2022-10-12T23:54:48.203Z,38.65
2022-10-12T23:56:38.794Z,46.03
2022-10-12T23:58:29.290Z,39.60
